sensor_id;sensor_type;location;lat;lon;timestamp;P1;durP1;ratioP1;P2;durP2;ratioP2
25717;SDS011;13574;52.040;5.692;2023-04-16T00:01:27;12.45;;;5.32;;
25717;SDS011;13574;52.040;5.692;2023-04-16T00:03:53;17.88;;;6.90;;
25717;SDS011;13574;52.040;5.692;2023-04-16T00:06:19;11.05;;;5.35;;
25717;SDS011;13574;52.040;5.692;2023-04-16T00:08:45;18.08;;;5.18;;
25717;SDS011;13574;52.040;5.692;2023-04-16T00:11:10;13.30;;;6.22;;
25717;SDS011;13574;52.040;5.692;2023-04-16T00:13:36;13.65;;;5.97;;
25717;SDS011;13574;52.040;5.692;2023-04-16T00:16:02;19.88;;;6.85;;
25717;SDS011;13574;52.040;5.692;2023-04-16T00:18:28;17.42;;;7.50;;
25717;SDS011;13574;52.040;5.692;2023-04-16T00:20:54;19.77;;;6.85;;
25717;SDS011;13574;52.040;5.692;2023-04-16T00:23:20;19.02;;;7.22;;
25717;SDS011;13574;52.040;5.692;2023-04-16T00:25:45;22.15;;;8.00;;
25717;SDS011;13574;52.040;5.692;2023-04-16T00:28:11;20.17;;;7.68;;
25717;SDS011;13574;52.040;5.692;2023-04-16T00:30:37;19.48;;;7.50;;
25717;SDS011;13574;52.040;5.692;2023-04-16T00:33:02;20.45;;;8.30;;
25717;SDS011;13574;52.040;5.692;2023-04-16T00:35:29;26.15;;;9.10;;
25717;SDS011;13574;52.040;5.692;2023-04-16T00:37:54;21.60;;;8.35;;
25717;SDS011;13574;52.040;5.692;2023-04-16T00:40:20;33.00;;;11.18;;
25717;SDS011;13574;52.040;5.692;2023-04-16T00:42:46;25.27;;;9.25;;
25717;SDS011;13574;52.040;5.692;2023-04-16T00:45:11;29.35;;;10.73;;
25717;SDS011;13574;52.040;5.692;2023-04-16T00:47:37;12.70;;;5.40;;
25717;SDS011;13574;52.040;5.692;2023-04-16T00:50:03;29.50;;;11.80;;
25717;SDS011;13574;52.040;5.692;2023-04-16T00:52:32;31.90;;;12.05;;
25717;SDS011;13574;52.040;5.692;2023-04-16T00:54:59;27.17;;;10.23;;
25717;SDS011;13574;52.040;5.692;2023-04-16T00:57:25;35.33;;;13.90;;
25717;SDS011;13574;52.040;5.692;2023-04-16T00:59:51;30.90;;;12.63;;
25717;SDS011;13574;52.040;5.692;2023-04-16T01:02:18;27.08;;;11.43;;
25717;SDS011;13574;52.040;5.692;2023-04-16T01:04:44;37.05;;;12.60;;
25717;SDS011;13574;52.040;5.692;2023-04-16T01:07:09;29.63;;;12.85;;
25717;SDS011;13574;52.040;5.692;2023-04-16T01:09:35;33.20;;;12.02;;
25717;SDS011;13574;52.040;5.692;2023-04-16T01:12:00;32.17;;;12.70;;
25717;SDS011;13574;52.040;5.692;2023-04-16T01:14:26;25.83;;;11.02;;
25717;SDS011;13574;52.040;5.692;2023-04-16T01:16:52;31.88;;;11.95;;
25717;SDS011;13574;52.040;5.692;2023-04-16T01:19:17;31.10;;;12.02;;
25717;SDS011;13574;52.040;5.692;2023-04-16T01:21:43;33.50;;;12.40;;
25717;SDS011;13574;52.040;5.692;2023-04-16T01:24:09;33.28;;;11.95;;
25717;SDS011;13574;52.040;5.692;2023-04-16T01:26:34;33.25;;;12.55;;
25717;SDS011;13574;52.040;5.692;2023-04-16T01:29:01;29.15;;;12.00;;
25717;SDS011;13574;52.040;5.692;2023-04-16T01:31:26;30.27;;;12.45;;
25717;SDS011;13574;52.040;5.692;2023-04-16T01:33:52;37.95;;;13.45;;
25717;SDS011;13574;52.040;5.692;2023-04-16T01:36:18;26.05;;;12.18;;
25717;SDS011;13574;52.040;5.692;2023-04-16T01:38:43;33.20;;;12.68;;
25717;SDS011;13574;52.040;5.692;2023-04-16T01:41:09;37.35;;;13.07;;
25717;SDS011;13574;52.040;5.692;2023-04-16T01:43:34;33.97;;;12.52;;
25717;SDS011;13574;52.040;5.692;2023-04-16T01:46:14;35.78;;;12.95;;
25717;SDS011;13574;52.040;5.692;2023-04-16T01:48:44;35.08;;;13.48;;
25717;SDS011;13574;52.040;5.692;2023-04-16T01:51:11;36.97;;;12.25;;
25717;SDS011;13574;52.040;5.692;2023-04-16T01:53:36;33.17;;;12.82;;
25717;SDS011;13574;52.040;5.692;2023-04-16T01:56:02;35.22;;;12.00;;
25717;SDS011;13574;52.040;5.692;2023-04-16T01:58:28;30.30;;;12.23;;
25717;SDS011;13574;52.040;5.692;2023-04-16T02:00:54;32.88;;;12.90;;
25717;SDS011;13574;52.040;5.692;2023-04-16T02:03:20;28.30;;;12.38;;
25717;SDS011;13574;52.040;5.692;2023-04-16T02:05:48;32.83;;;13.05;;
25717;SDS011;13574;52.040;5.692;2023-04-16T02:08:15;30.75;;;12.63;;
25717;SDS011;13574;52.040;5.692;2023-04-16T02:10:41;37.50;;;13.77;;
25717;SDS011;13574;52.040;5.692;2023-04-16T02:13:09;31.65;;;12.70;;
25717;SDS011;13574;52.040;5.692;2023-04-16T02:15:35;32.75;;;12.73;;
25717;SDS011;13574;52.040;5.692;2023-04-16T02:18:01;32.22;;;13.30;;
25717;SDS011;13574;52.040;5.692;2023-04-16T02:20:26;32.05;;;13.43;;
25717;SDS011;13574;52.040;5.692;2023-04-16T02:22:53;37.75;;;14.45;;
25717;SDS011;13574;52.040;5.692;2023-04-16T02:25:18;33.85;;;13.65;;
25717;SDS011;13574;52.040;5.692;2023-04-16T02:27:44;38.03;;;13.98;;
25717;SDS011;13574;52.040;5.692;2023-04-16T02:30:10;38.80;;;13.70;;
25717;SDS011;13574;52.040;5.692;2023-04-16T02:32:35;30.42;;;13.38;;
25717;SDS011;13574;52.040;5.692;2023-04-16T02:35:01;43.38;;;14.88;;
25717;SDS011;13574;52.040;5.692;2023-04-16T02:37:28;33.90;;;14.20;;
25717;SDS011;13574;52.040;5.692;2023-04-16T02:39:53;33.67;;;14.07;;
25717;SDS011;13574;52.040;5.692;2023-04-16T02:42:19;35.72;;;13.82;;
25717;SDS011;13574;52.040;5.692;2023-04-16T02:44:45;36.95;;;14.15;;
25717;SDS011;13574;52.040;5.692;2023-04-16T02:47:10;34.95;;;14.35;;
25717;SDS011;13574;52.040;5.692;2023-04-16T02:49:36;37.42;;;13.75;;
25717;SDS011;13574;52.040;5.692;2023-04-16T02:52:02;38.50;;;14.95;;
25717;SDS011;13574;52.040;5.692;2023-04-16T02:54:27;44.03;;;14.82;;
25717;SDS011;13574;52.040;5.692;2023-04-16T02:56:53;40.50;;;15.45;;
25717;SDS011;13574;52.040;5.692;2023-04-16T02:59:19;36.33;;;14.85;;
25717;SDS011;13574;52.040;5.692;2023-04-16T03:01:44;35.33;;;15.27;;
25717;SDS011;13574;52.040;5.692;2023-04-16T03:04:10;36.78;;;14.30;;
25717;SDS011;13574;52.040;5.692;2023-04-16T03:06:35;38.42;;;15.35;;
25717;SDS011;13574;52.040;5.692;2023-04-16T03:09:01;38.13;;;16.60;;
25717;SDS011;13574;52.040;5.692;2023-04-16T03:11:27;40.03;;;15.20;;
25717;SDS011;13574;52.040;5.692;2023-04-16T03:13:52;44.22;;;16.33;;
25717;SDS011;13574;52.040;5.692;2023-04-16T03:16:18;38.97;;;14.95;;
25717;SDS011;13574;52.040;5.692;2023-04-16T03:18:44;36.55;;;15.23;;
25717;SDS011;13574;52.040;5.692;2023-04-16T03:21:09;44.63;;;16.88;;
25717;SDS011;13574;52.040;5.692;2023-04-16T03:23:35;37.05;;;15.75;;
25717;SDS011;13574;52.040;5.692;2023-04-16T03:26:01;45.40;;;16.23;;
25717;SDS011;13574;52.040;5.692;2023-04-16T03:28:26;39.20;;;16.10;;
25717;SDS011;13574;52.040;5.692;2023-04-16T03:30:52;37.08;;;15.73;;
25717;SDS011;13574;52.040;5.692;2023-04-16T03:33:18;43.47;;;16.52;;
25717;SDS011;13574;52.040;5.692;2023-04-16T03:35:44;42.08;;;15.82;;
25717;SDS011;13574;52.040;5.692;2023-04-16T03:38:10;38.38;;;16.92;;
25717;SDS011;13574;52.040;5.692;2023-04-16T03:40:36;42.85;;;17.00;;
25717;SDS011;13574;52.040;5.692;2023-04-16T03:43:02;39.78;;;16.48;;
25717;SDS011;13574;52.040;5.692;2023-04-16T03:45:28;40.97;;;17.10;;
25717;SDS011;13574;52.040;5.692;2023-04-16T03:47:54;41.35;;;17.05;;
25717;SDS011;13574;52.040;5.692;2023-04-16T03:50:19;41.72;;;17.38;;
25717;SDS011;13574;52.040;5.692;2023-04-16T03:52:45;43.58;;;16.98;;
25717;SDS011;13574;52.040;5.692;2023-04-16T03:55:13;43.70;;;17.08;;
25717;SDS011;13574;52.040;5.692;2023-04-16T03:57:39;41.33;;;17.00;;
25717;SDS011;13574;52.040;5.692;2023-04-16T04:00:05;40.25;;;16.00;;
25717;SDS011;13574;52.040;5.692;2023-04-16T04:02:31;45.55;;;17.90;;
25717;SDS011;13574;52.040;5.692;2023-04-16T04:04:57;43.33;;;17.20;;
25717;SDS011;13574;52.040;5.692;2023-04-16T04:07:23;48.88;;;18.75;;
25717;SDS011;13574;52.040;5.692;2023-04-16T04:09:48;45.72;;;19.02;;
25717;SDS011;13574;52.040;5.692;2023-04-16T04:12:14;55.70;;;19.05;;
25717;SDS011;13574;52.040;5.692;2023-04-16T04:14:39;51.10;;;19.98;;
25717;SDS011;13574;52.040;5.692;2023-04-16T04:17:05;43.90;;;18.27;;
25717;SDS011;13574;52.040;5.692;2023-04-16T04:19:32;46.95;;;19.45;;
25717;SDS011;13574;52.040;5.692;2023-04-16T04:21:57;50.70;;;19.35;;
25717;SDS011;13574;52.040;5.692;2023-04-16T04:24:23;46.40;;;19.88;;
25717;SDS011;13574;52.040;5.692;2023-04-16T04:26:49;41.97;;;18.17;;
25717;SDS011;13574;52.040;5.692;2023-04-16T04:29:15;50.70;;;19.42;;
25717;SDS011;13574;52.040;5.692;2023-04-16T04:31:41;52.08;;;20.58;;
25717;SDS011;13574;52.040;5.692;2023-04-16T04:34:06;49.47;;;19.95;;
25717;SDS011;13574;52.040;5.692;2023-04-16T04:36:32;51.72;;;19.95;;
25717;SDS011;13574;52.040;5.692;2023-04-16T04:38:57;49.55;;;19.80;;
25717;SDS011;13574;52.040;5.692;2023-04-16T04:41:23;48.22;;;20.13;;
25717;SDS011;13574;52.040;5.692;2023-04-16T04:43:50;44.75;;;19.35;;
25717;SDS011;13574;52.040;5.692;2023-04-16T04:46:16;47.13;;;19.20;;
25717;SDS011;13574;52.040;5.692;2023-04-16T04:48:42;47.00;;;20.10;;
25717;SDS011;13574;52.040;5.692;2023-04-16T04:51:07;47.88;;;20.20;;
25717;SDS011;13574;52.040;5.692;2023-04-16T04:53:33;47.75;;;19.48;;
25717;SDS011;13574;52.040;5.692;2023-04-16T04:55:59;48.15;;;20.17;;
25717;SDS011;13574;52.040;5.692;2023-04-16T04:58:24;47.60;;;18.75;;
25717;SDS011;13574;52.040;5.692;2023-04-16T05:00:50;38.55;;;17.30;;
25717;SDS011;13574;52.040;5.692;2023-04-16T05:03:18;42.22;;;17.20;;
25717;SDS011;13574;52.040;5.692;2023-04-16T05:05:45;39.50;;;17.25;;
25717;SDS011;13574;52.040;5.692;2023-04-16T05:08:11;39.47;;;17.15;;
25717;SDS011;13574;52.040;5.692;2023-04-16T05:10:37;41.33;;;17.50;;
25717;SDS011;13574;52.040;5.692;2023-04-16T05:13:02;43.45;;;17.80;;
25717;SDS011;13574;52.040;5.692;2023-04-16T05:15:28;41.13;;;16.13;;
25717;SDS011;13574;52.040;5.692;2023-04-16T05:17:54;44.35;;;17.48;;
25717;SDS011;13574;52.040;5.692;2023-04-16T05:20:20;38.10;;;16.35;;
25717;SDS011;13574;52.040;5.692;2023-04-16T05:22:48;40.88;;;17.63;;
25717;SDS011;13574;52.040;5.692;2023-04-16T05:25:14;34.40;;;16.15;;
25717;SDS011;13574;52.040;5.692;2023-04-16T05:27:41;34.20;;;16.52;;
25717;SDS011;13574;52.040;5.692;2023-04-16T05:30:07;46.90;;;17.88;;
25717;SDS011;13574;52.040;5.692;2023-04-16T05:32:33;37.47;;;18.10;;
25717;SDS011;13574;52.040;5.692;2023-04-16T05:34:59;40.50;;;16.40;;
25717;SDS011;13574;52.040;5.692;2023-04-16T05:37:25;40.70;;;17.38;;
25717;SDS011;13574;52.040;5.692;2023-04-16T05:39:50;39.63;;;17.88;;
25717;SDS011;13574;52.040;5.692;2023-04-16T05:42:16;41.30;;;17.20;;
25717;SDS011;13574;52.040;5.692;2023-04-16T05:44:42;39.47;;;17.58;;
25717;SDS011;13574;52.040;5.692;2023-04-16T05:47:07;41.70;;;18.42;;
25717;SDS011;13574;52.040;5.692;2023-04-16T05:49:34;43.97;;;18.52;;
25717;SDS011;13574;52.040;5.692;2023-04-16T05:52:01;38.05;;;16.65;;
25717;SDS011;13574;52.040;5.692;2023-04-16T05:54:30;41.92;;;18.33;;
25717;SDS011;13574;52.040;5.692;2023-04-16T05:56:55;42.97;;;17.83;;
25717;SDS011;13574;52.040;5.692;2023-04-16T05:59:21;39.55;;;17.13;;
25717;SDS011;13574;52.040;5.692;2023-04-16T06:01:47;41.45;;;17.77;;
25717;SDS011;13574;52.040;5.692;2023-04-16T06:04:12;40.00;;;18.80;;
25717;SDS011;13574;52.040;5.692;2023-04-16T06:06:38;44.72;;;17.42;;
25717;SDS011;13574;52.040;5.692;2023-04-16T06:09:04;43.72;;;17.73;;
25717;SDS011;13574;52.040;5.692;2023-04-16T06:11:30;40.83;;;17.77;;
25717;SDS011;13574;52.040;5.692;2023-04-16T06:13:55;43.88;;;18.58;;
25717;SDS011;13574;52.040;5.692;2023-04-16T06:16:21;45.92;;;18.00;;
25717;SDS011;13574;52.040;5.692;2023-04-16T06:18:46;43.20;;;18.73;;
25717;SDS011;13574;52.040;5.692;2023-04-16T06:21:12;36.22;;;18.98;;
25717;SDS011;13574;52.040;5.692;2023-04-16T06:23:38;41.88;;;18.08;;
25717;SDS011;13574;52.040;5.692;2023-04-16T06:26:04;47.30;;;17.90;;
25717;SDS011;13574;52.040;5.692;2023-04-16T06:28:30;36.50;;;16.83;;
25717;SDS011;13574;52.040;5.692;2023-04-16T06:30:55;42.05;;;17.58;;
25717;SDS011;13574;52.040;5.692;2023-04-16T06:33:21;38.70;;;17.17;;
25717;SDS011;13574;52.040;5.692;2023-04-16T06:35:47;35.38;;;16.58;;
25717;SDS011;13574;52.040;5.692;2023-04-16T06:38:13;50.42;;;19.02;;
25717;SDS011;13574;52.040;5.692;2023-04-16T06:40:39;43.72;;;16.92;;
25717;SDS011;13574;52.040;5.692;2023-04-16T06:43:05;39.03;;;17.25;;
25717;SDS011;13574;52.040;5.692;2023-04-16T06:45:30;38.85;;;17.25;;
25717;SDS011;13574;52.040;5.692;2023-04-16T06:47:56;42.28;;;17.08;;
25717;SDS011;13574;52.040;5.692;2023-04-16T06:50:27;39.67;;;17.45;;
25717;SDS011;13574;52.040;5.692;2023-04-16T06:52:55;40.65;;;16.92;;
25717;SDS011;13574;52.040;5.692;2023-04-16T06:55:21;38.85;;;17.35;;
25717;SDS011;13574;52.040;5.692;2023-04-16T06:57:47;40.10;;;17.05;;
25717;SDS011;13574;52.040;5.692;2023-04-16T07:00:12;38.90;;;16.70;;
25717;SDS011;13574;52.040;5.692;2023-04-16T07:02:38;40.58;;;17.15;;
25717;SDS011;13574;52.040;5.692;2023-04-16T07:05:04;37.42;;;17.33;;
25717;SDS011;13574;52.040;5.692;2023-04-16T07:07:30;41.78;;;17.40;;
25717;SDS011;13574;52.040;5.692;2023-04-16T07:09:57;39.15;;;18.05;;
25717;SDS011;13574;52.040;5.692;2023-04-16T07:12:23;55.22;;;20.00;;
25717;SDS011;13574;52.040;5.692;2023-04-16T07:14:48;40.70;;;18.02;;
25717;SDS011;13574;52.040;5.692;2023-04-16T07:17:14;39.58;;;17.00;;
25717;SDS011;13574;52.040;5.692;2023-04-16T07:19:40;102.13;;;33.20;;
25717;SDS011;13574;52.040;5.692;2023-04-16T07:22:05;51.63;;;22.67;;
25717;SDS011;13574;52.040;5.692;2023-04-16T07:24:32;60.58;;;26.35;;
25717;SDS011;13574;52.040;5.692;2023-04-16T07:26:57;60.28;;;24.80;;
25717;SDS011;13574;52.040;5.692;2023-04-16T07:29:23;48.70;;;19.45;;
25717;SDS011;13574;52.040;5.692;2023-04-16T07:31:48;48.90;;;19.70;;
25717;SDS011;13574;52.040;5.692;2023-04-16T07:34:14;47.08;;;19.27;;
25717;SDS011;13574;52.040;5.692;2023-04-16T07:36:40;46.58;;;19.88;;
25717;SDS011;13574;52.040;5.692;2023-04-16T07:39:05;45.00;;;20.92;;
25717;SDS011;13574;52.040;5.692;2023-04-16T07:41:31;52.65;;;20.38;;
25717;SDS011;13574;52.040;5.692;2023-04-16T07:43:57;43.35;;;20.30;;
25717;SDS011;13574;52.040;5.692;2023-04-16T07:46:23;53.42;;;21.83;;
25717;SDS011;13574;52.040;5.692;2023-04-16T07:48:48;53.45;;;22.10;;
25717;SDS011;13574;52.040;5.692;2023-04-16T07:51:14;48.70;;;20.77;;
25717;SDS011;13574;52.040;5.692;2023-04-16T07:53:40;46.95;;;21.60;;
25717;SDS011;13574;52.040;5.692;2023-04-16T07:56:07;47.83;;;20.67;;
25717;SDS011;13574;52.040;5.692;2023-04-16T07:58:33;44.17;;;21.42;;
25717;SDS011;13574;52.040;5.692;2023-04-16T08:00:59;44.42;;;21.38;;
25717;SDS011;13574;52.040;5.692;2023-04-16T08:03:25;47.38;;;20.85;;
25717;SDS011;13574;52.040;5.692;2023-04-16T08:05:51;47.28;;;20.45;;
25717;SDS011;13574;52.040;5.692;2023-04-16T08:08:17;47.88;;;21.77;;
25717;SDS011;13574;52.040;5.692;2023-04-16T08:10:42;49.08;;;22.05;;
25717;SDS011;13574;52.040;5.692;2023-04-16T08:13:08;45.83;;;20.13;;
25717;SDS011;13574;52.040;5.692;2023-04-16T08:15:34;42.85;;;21.15;;
25717;SDS011;13574;52.040;5.692;2023-04-16T08:18:00;47.42;;;20.88;;
25717;SDS011;13574;52.040;5.692;2023-04-16T08:20:25;45.53;;;20.73;;
25717;SDS011;13574;52.040;5.692;2023-04-16T08:22:52;46.13;;;19.48;;
25717;SDS011;13574;52.040;5.692;2023-04-16T08:25:18;41.67;;;20.23;;
25717;SDS011;13574;52.040;5.692;2023-04-16T08:27:45;46.22;;;20.33;;
25717;SDS011;13574;52.040;5.692;2023-04-16T08:30:11;42.80;;;20.88;;
25717;SDS011;13574;52.040;5.692;2023-04-16T08:32:40;41.25;;;21.08;;
25717;SDS011;13574;52.040;5.692;2023-04-16T08:35:07;42.83;;;19.10;;
25717;SDS011;13574;52.040;5.692;2023-04-16T08:37:33;44.67;;;20.65;;
25717;SDS011;13574;52.040;5.692;2023-04-16T08:40:02;39.92;;;20.85;;
25717;SDS011;13574;52.040;5.692;2023-04-16T08:44:56;41.05;;;19.85;;
25717;SDS011;13574;52.040;5.692;2023-04-16T08:47:30;43.28;;;20.00;;
25717;SDS011;13574;52.040;5.692;2023-04-16T08:50:00;41.65;;;19.52;;
25717;SDS011;13574;52.040;5.692;2023-04-16T08:52:27;43.65;;;20.65;;
25717;SDS011;13574;52.040;5.692;2023-04-16T08:54:57;45.35;;;19.95;;
25717;SDS011;13574;52.040;5.692;2023-04-16T08:57:36;41.05;;;21.48;;
25717;SDS011;13574;52.040;5.692;2023-04-16T09:00:11;44.10;;;21.38;;
25717;SDS011;13574;52.040;5.692;2023-04-16T09:02:38;46.33;;;20.83;;
25717;SDS011;13574;52.040;5.692;2023-04-16T09:05:15;46.13;;;20.73;;
25717;SDS011;13574;52.040;5.692;2023-04-16T09:07:45;40.80;;;19.92;;
25717;SDS011;13574;52.040;5.692;2023-04-16T09:10:12;42.70;;;19.92;;
25717;SDS011;13574;52.040;5.692;2023-04-16T09:12:40;43.17;;;20.52;;
25717;SDS011;13574;52.040;5.692;2023-04-16T09:15:07;44.13;;;20.35;;
25717;SDS011;13574;52.040;5.692;2023-04-16T09:17:34;39.65;;;19.83;;
25717;SDS011;13574;52.040;5.692;2023-04-16T09:20:01;42.80;;;19.50;;
25717;SDS011;13574;52.040;5.692;2023-04-16T09:22:32;39.92;;;19.35;;
25717;SDS011;13574;52.040;5.692;2023-04-16T09:25:01;44.05;;;19.45;;
25717;SDS011;13574;52.040;5.692;2023-04-16T09:27:26;49.88;;;20.90;;
25717;SDS011;13574;52.040;5.692;2023-04-16T09:29:53;37.53;;;18.92;;
25717;SDS011;13574;52.040;5.692;2023-04-16T09:32:23;41.30;;;20.48;;
25717;SDS011;13574;52.040;5.692;2023-04-16T09:34:58;44.28;;;20.25;;
25717;SDS011;13574;52.040;5.692;2023-04-16T09:37:25;39.97;;;19.85;;
25717;SDS011;13574;52.040;5.692;2023-04-16T09:42:27;45.35;;;19.90;;
25717;SDS011;13574;52.040;5.692;2023-04-16T09:44:55;44.17;;;19.65;;
25717;SDS011;13574;52.040;5.692;2023-04-16T09:47:21;42.33;;;20.20;;
25717;SDS011;13574;52.040;5.692;2023-04-16T09:49:47;40.60;;;19.67;;
25717;SDS011;13574;52.040;5.692;2023-04-16T09:54:48;42.40;;;20.02;;
25717;SDS011;13574;52.040;5.692;2023-04-16T09:57:19;41.90;;;19.67;;
25717;SDS011;13574;52.040;5.692;2023-04-16T10:02:13;39.97;;;19.38;;
25717;SDS011;13574;52.040;5.692;2023-04-16T10:04:44;40.13;;;17.90;;
25717;SDS011;13574;52.040;5.692;2023-04-16T10:07:14;36.90;;;18.92;;
25717;SDS011;13574;52.040;5.692;2023-04-16T10:09:39;33.95;;;17.92;;
25717;SDS011;13574;52.040;5.692;2023-04-16T10:12:05;41.90;;;19.08;;
25717;SDS011;13574;52.040;5.692;2023-04-16T10:14:32;40.78;;;18.52;;
25717;SDS011;13574;52.040;5.692;2023-04-16T10:16:58;36.65;;;18.60;;
25717;SDS011;13574;52.040;5.692;2023-04-16T10:19:26;39.45;;;18.60;;
25717;SDS011;13574;52.040;5.692;2023-04-16T10:21:52;41.80;;;19.42;;
25717;SDS011;13574;52.040;5.692;2023-04-16T10:24:19;40.55;;;19.60;;
25717;SDS011;13574;52.040;5.692;2023-04-16T10:26:45;38.72;;;18.27;;
25717;SDS011;13574;52.040;5.692;2023-04-16T10:29:13;42.08;;;19.10;;
25717;SDS011;13574;52.040;5.692;2023-04-16T10:31:38;38.35;;;18.50;;
25717;SDS011;13574;52.040;5.692;2023-04-16T10:34:06;39.33;;;18.80;;
25717;SDS011;13574;52.040;5.692;2023-04-16T10:36:36;38.25;;;18.50;;
25717;SDS011;13574;52.040;5.692;2023-04-16T10:39:02;36.28;;;18.63;;
25717;SDS011;13574;52.040;5.692;2023-04-16T10:41:30;38.05;;;18.75;;
25717;SDS011;13574;52.040;5.692;2023-04-16T10:44:07;35.05;;;18.05;;
25717;SDS011;13574;52.040;5.692;2023-04-16T10:46:38;39.70;;;18.50;;
25717;SDS011;13574;52.040;5.692;2023-04-16T10:51:53;35.05;;;18.65;;
25717;SDS011;13574;52.040;5.692;2023-04-16T10:54:27;43.38;;;18.77;;
25717;SDS011;13574;52.040;5.692;2023-04-16T10:56:57;40.47;;;19.08;;
25717;SDS011;13574;52.040;5.692;2023-04-16T10:59:24;38.67;;;19.65;;
25717;SDS011;13574;52.040;5.692;2023-04-16T11:01:54;37.40;;;17.75;;
25717;SDS011;13574;52.040;5.692;2023-04-16T11:07:00;43.58;;;19.15;;
25717;SDS011;13574;52.040;5.692;2023-04-16T11:12:39;34.67;;;18.02;;
25717;SDS011;13574;52.040;5.692;2023-04-16T11:15:07;40.10;;;18.63;;
25717;SDS011;13574;52.040;5.692;2023-04-16T11:20:07;38.63;;;18.83;;
25717;SDS011;13574;52.040;5.692;2023-04-16T11:22:35;35.95;;;19.15;;
25717;SDS011;13574;52.040;5.692;2023-04-16T11:25:00;38.72;;;18.02;;
25717;SDS011;13574;52.040;5.692;2023-04-16T11:27:26;36.38;;;18.90;;
25717;SDS011;13574;52.040;5.692;2023-04-16T11:29:58;37.05;;;17.55;;
25717;SDS011;13574;52.040;5.692;2023-04-16T11:32:36;36.10;;;17.67;;
25717;SDS011;13574;52.040;5.692;2023-04-16T11:35:23;37.70;;;18.13;;
25717;SDS011;13574;52.040;5.692;2023-04-16T11:37:48;33.35;;;17.80;;
25717;SDS011;13574;52.040;5.692;2023-04-16T11:40:14;33.40;;;18.08;;
25717;SDS011;13574;52.040;5.692;2023-04-16T11:42:40;34.53;;;17.45;;
25717;SDS011;13574;52.040;5.692;2023-04-16T11:45:07;39.88;;;18.00;;
25717;SDS011;13574;52.040;5.692;2023-04-16T11:50:22;34.63;;;17.73;;
25717;SDS011;13574;52.040;5.692;2023-04-16T11:52:50;33.25;;;16.35;;
25717;SDS011;13574;52.040;5.692;2023-04-16T11:55:17;35.25;;;17.63;;
25717;SDS011;13574;52.040;5.692;2023-04-16T11:57:43;36.55;;;17.45;;
25717;SDS011;13574;52.040;5.692;2023-04-16T12:00:10;31.50;;;16.30;;
25717;SDS011;13574;52.040;5.692;2023-04-16T12:02:50;32.05;;;17.08;;
25717;SDS011;13574;52.040;5.692;2023-04-16T12:05:36;29.20;;;15.98;;
25717;SDS011;13574;52.040;5.692;2023-04-16T12:08:04;35.83;;;17.50;;
25717;SDS011;13574;52.040;5.692;2023-04-16T12:10:32;28.42;;;16.00;;
25717;SDS011;13574;52.040;5.692;2023-04-16T12:13:12;34.65;;;16.65;;
25717;SDS011;13574;52.040;5.692;2023-04-16T12:15:45;33.65;;;16.60;;
25717;SDS011;13574;52.040;5.692;2023-04-16T12:18:12;32.45;;;16.40;;
25717;SDS011;13574;52.040;5.692;2023-04-16T12:20:40;30.60;;;16.00;;
25717;SDS011;13574;52.040;5.692;2023-04-16T12:23:06;28.48;;;15.80;;
25717;SDS011;13574;52.040;5.692;2023-04-16T12:25:32;33.50;;;15.57;;
25717;SDS011;13574;52.040;5.692;2023-04-16T12:27:58;32.20;;;15.68;;
25717;SDS011;13574;52.040;5.692;2023-04-16T12:30:24;32.15;;;16.10;;
25717;SDS011;13574;52.040;5.692;2023-04-16T12:33:12;27.48;;;15.88;;
25717;SDS011;13574;52.040;5.692;2023-04-16T12:35:40;26.02;;;15.50;;
25717;SDS011;13574;52.040;5.692;2023-04-16T12:38:08;30.23;;;16.10;;
25717;SDS011;13574;52.040;5.692;2023-04-16T12:40:34;32.17;;;15.05;;
25717;SDS011;13574;52.040;5.692;2023-04-16T12:43:00;30.02;;;16.27;;
25717;SDS011;13574;52.040;5.692;2023-04-16T12:45:26;26.88;;;14.40;;
25717;SDS011;13574;52.040;5.692;2023-04-16T12:47:52;29.20;;;15.23;;
25717;SDS011;13574;52.040;5.692;2023-04-16T12:50:19;26.20;;;14.77;;
25717;SDS011;13574;52.040;5.692;2023-04-16T12:52:45;25.58;;;14.07;;
25717;SDS011;13574;52.040;5.692;2023-04-16T12:55:11;28.00;;;14.80;;
25717;SDS011;13574;52.040;5.692;2023-04-16T12:57:38;31.98;;;14.90;;
25717;SDS011;13574;52.040;5.692;2023-04-16T13:00:04;29.50;;;14.68;;
25717;SDS011;13574;52.040;5.692;2023-04-16T13:02:30;27.52;;;14.82;;
25717;SDS011;13574;52.040;5.692;2023-04-16T13:04:56;26.10;;;14.38;;
25717;SDS011;13574;52.040;5.692;2023-04-16T13:07:22;26.95;;;14.73;;
25717;SDS011;13574;52.040;5.692;2023-04-16T13:09:48;25.38;;;13.93;;
25717;SDS011;13574;52.040;5.692;2023-04-16T13:12:14;27.02;;;14.65;;
25717;SDS011;13574;52.040;5.692;2023-04-16T13:14:40;27.50;;;15.07;;
25717;SDS011;13574;52.040;5.692;2023-04-16T13:17:06;26.73;;;15.50;;
25717;SDS011;13574;52.040;5.692;2023-04-16T13:19:31;27.63;;;15.20;;
25717;SDS011;13574;52.040;5.692;2023-04-16T13:21:57;29.42;;;15.55;;
25717;SDS011;13574;52.040;5.692;2023-04-16T13:24:23;31.65;;;15.30;;
25717;SDS011;13574;52.040;5.692;2023-04-16T13:26:49;28.33;;;14.57;;
25717;SDS011;13574;52.040;5.692;2023-04-16T13:29:18;27.75;;;15.30;;
25717;SDS011;13574;52.040;5.692;2023-04-16T13:31:45;30.25;;;16.15;;
25717;SDS011;13574;52.040;5.692;2023-04-16T13:34:11;26.27;;;14.50;;
25717;SDS011;13574;52.040;5.692;2023-04-16T13:36:36;30.10;;;15.88;;
25717;SDS011;13574;52.040;5.692;2023-04-16T13:39:02;30.48;;;15.45;;
25717;SDS011;13574;52.040;5.692;2023-04-16T13:41:29;29.83;;;15.52;;
25717;SDS011;13574;52.040;5.692;2023-04-16T13:43:55;24.98;;;14.90;;
25717;SDS011;13574;52.040;5.692;2023-04-16T13:46:21;29.20;;;15.02;;
25717;SDS011;13574;52.040;5.692;2023-04-16T13:48:47;32.28;;;16.00;;
25717;SDS011;13574;52.040;5.692;2023-04-16T13:51:12;25.92;;;15.40;;
25717;SDS011;13574;52.040;5.692;2023-04-16T13:53:39;30.75;;;15.63;;
25717;SDS011;13574;52.040;5.692;2023-04-16T13:56:05;31.40;;;15.25;;
25717;SDS011;13574;52.040;5.692;2023-04-16T13:58:31;26.90;;;16.27;;
25717;SDS011;13574;52.040;5.692;2023-04-16T14:00:57;30.65;;;15.77;;
25717;SDS011;13574;52.040;5.692;2023-04-16T14:03:24;29.15;;;16.73;;
25717;SDS011;13574;52.040;5.692;2023-04-16T14:05:50;28.15;;;15.77;;
25717;SDS011;13574;52.040;5.692;2023-04-16T14:08:16;35.08;;;16.60;;
25717;SDS011;13574;52.040;5.692;2023-04-16T14:10:45;31.63;;;16.67;;
25717;SDS011;13574;52.040;5.692;2023-04-16T14:13:13;36.03;;;17.30;;
25717;SDS011;13574;52.040;5.692;2023-04-16T14:15:39;29.35;;;15.32;;
25717;SDS011;13574;52.040;5.692;2023-04-16T14:18:05;35.92;;;17.13;;
25717;SDS011;13574;52.040;5.692;2023-04-16T14:20:30;35.35;;;17.58;;
25717;SDS011;13574;52.040;5.692;2023-04-16T14:22:56;32.63;;;16.58;;
25717;SDS011;13574;52.040;5.692;2023-04-16T14:25:22;27.65;;;15.18;;
25717;SDS011;13574;52.040;5.692;2023-04-16T14:27:48;28.17;;;15.88;;
25717;SDS011;13574;52.040;5.692;2023-04-16T14:30:13;29.25;;;15.85;;
25717;SDS011;13574;52.040;5.692;2023-04-16T14:32:40;28.15;;;15.63;;
25717;SDS011;13574;52.040;5.692;2023-04-16T14:35:06;25.35;;;14.52;;
25717;SDS011;13574;52.040;5.692;2023-04-16T14:37:33;28.83;;;15.77;;
25717;SDS011;13574;52.040;5.692;2023-04-16T14:40:02;29.20;;;15.63;;
25717;SDS011;13574;52.040;5.692;2023-04-16T14:42:32;26.13;;;15.98;;